sensor_id;sensor_type;location;lat;lon;timestamp;pressure;altitude;pressure_sealevel;temperature;humidity
75740;BME280;64357;51.344;6.550;2023-09-18T00:01:10;100213.50;;;20.05;100.00
75740;BME280;64357;51.344;6.550;2023-09-18T00:03:35;100223.81;;;20.21;100.00
75740;BME280;64357;51.344;6.550;2023-09-18T00:06:01;100219.41;;;20.37;100.00
75740;BME280;64357;51.344;6.550;2023-09-18T00:08:28;100218.91;;;20.44;100.00
75740;BME280;64357;51.344;6.550;2023-09-18T00:10:58;100215.63;;;20.46;100.00
75740;BME280;64357;51.344;6.550;2023-09-18T00:13:25;100209.41;;;20.44;100.00
75740;BME280;64357;51.344;6.550;2023-09-18T00:15:54;100203.22;;;20.41;100.00
75740;BME280;64357;51.344;6.550;2023-09-18T00:18:20;100195.56;;;20.44;100.00
75740;BME280;64357;51.344;6.550;2023-09-18T00:20:46;100192.13;;;20.45;100.00
75740;BME280;64357;51.344;6.550;2023-09-18T00:23:13;100199.03;;;20.44;100.00
75740;BME280;64357;51.344;6.550;2023-09-18T00:25:40;100171.47;;;20.29;100.00
75740;BME280;64357;51.344;6.550;2023-09-18T00:28:13;100172.78;;;20.38;100.00
75740;BME280;64357;51.344;6.550;2023-09-18T00:30:42;100166.59;;;20.35;100.00
75740;BME280;64357;51.344;6.550;2023-09-18T00:33:11;100165.81;;;20.37;100.00
75740;BME280;64357;51.344;6.550;2023-09-18T00:35:39;100152.84;;;20.37;100.00
75740;BME280;64357;51.344;6.550;2023-09-18T00:38:04;100162.97;;;20.49;100.00
75740;BME280;64357;51.344;6.550;2023-09-18T00:40:34;100161.44;;;20.53;100.00
75740;BME280;64357;51.344;6.550;2023-09-18T00:42:59;100159.78;;;20.55;100.00
75740;BME280;64357;51.344;6.550;2023-09-18T00:45:25;100149.06;;;20.47;100.00
75740;BME280;64357;51.344;6.550;2023-09-18T00:47:50;100150.81;;;20.48;100.00
75740;BME280;64357;51.344;6.550;2023-09-18T00:50:19;100144.88;;;20.50;100.00
75740;BME280;64357;51.344;6.550;2023-09-18T00:52:44;100130.63;;;20.42;100.00
75740;BME280;64357;51.344;6.550;2023-09-18T00:55:13;100128.50;;;20.52;100.00
75740;BME280;64357;51.344;6.550;2023-09-18T00:57:38;100121.41;;;20.47;100.00
75740;BME280;64357;51.344;6.550;2023-09-18T01:00:08;100101.84;;;20.38;100.00
75740;BME280;64357;51.344;6.550;2023-09-18T01:02:36;100112.84;;;20.50;100.00
75740;BME280;64357;51.344;6.550;2023-09-18T01:05:03;100123.81;;;20.62;100.00
75740;BME280;64357;51.344;6.550;2023-09-18T01:07:29;100115.44;;;20.68;100.00
75740;BME280;64357;51.344;6.550;2023-09-18T01:09:54;100115.91;;;20.59;100.00
75740;BME280;64357;51.344;6.550;2023-09-18T01:15:21;100110.13;;;20.65;100.00
75740;BME280;64357;51.344;6.550;2023-09-18T01:17:48;100105.66;;;20.62;100.00
75740;BME280;64357;51.344;6.550;2023-09-18T01:20:13;100103.22;;;20.65;100.00
75740;BME280;64357;51.344;6.550;2023-09-18T01:22:39;100103.38;;;20.50;100.00
75740;BME280;64357;51.344;6.550;2023-09-18T01:25:05;100110.50;;;20.55;100.00
75740;BME280;64357;51.344;6.550;2023-09-18T01:27:31;100102.47;;;20.50;100.00
75740;BME280;64357;51.344;6.550;2023-09-18T01:29:59;100098.94;;;20.48;100.00
75740;BME280;64357;51.344;6.550;2023-09-18T01:32:29;100110.13;;;20.47;100.00
75740;BME280;64357;51.344;6.550;2023-09-18T01:34:57;100107.44;;;20.45;100.00
75740;BME280;64357;51.344;6.550;2023-09-18T01:37:26;100103.03;;;20.44;100.00
75740;BME280;64357;51.344;6.550;2023-09-18T01:39:52;100093.69;;;20.46;100.00
75740;BME280;64357;51.344;6.550;2023-09-18T01:42:18;100089.13;;;20.42;100.00
75740;BME280;64357;51.344;6.550;2023-09-18T01:44:45;100082.38;;;20.46;100.00
75740;BME280;64357;51.344;6.550;2023-09-18T01:47:16;100090.38;;;20.50;100.00
75740;BME280;64357;51.344;6.550;2023-09-18T01:49:46;100093.16;;;20.54;100.00
75740;BME280;64357;51.344;6.550;2023-09-18T01:52:12;100091.56;;;20.57;100.00
75740;BME280;64357;51.344;6.550;2023-09-18T01:54:40;100082.06;;;20.58;100.00
75740;BME280;64357;51.344;6.550;2023-09-18T01:57:06;100077.94;;;20.61;100.00
75740;BME280;64357;51.344;6.550;2023-09-18T01:59:34;100067.72;;;20.64;100.00
75740;BME280;64357;51.344;6.550;2023-09-18T02:02:02;100066.88;;;20.65;100.00
75740;BME280;64357;51.344;6.550;2023-09-18T02:04:30;100076.66;;;20.71;100.00
75740;BME280;64357;51.344;6.550;2023-09-18T02:06:57;100075.06;;;20.74;100.00
75740;BME280;64357;51.344;6.550;2023-09-18T02:09:23;100067.56;;;20.81;100.00
75740;BME280;64357;51.344;6.550;2023-09-18T02:11:55;100057.28;;;20.82;100.00
75740;BME280;64357;51.344;6.550;2023-09-18T02:14:20;100051.22;;;20.82;100.00
75740;BME280;64357;51.344;6.550;2023-09-18T02:16:46;100049.84;;;20.90;100.00
75740;BME280;64357;51.344;6.550;2023-09-18T02:19:17;100056.94;;;20.94;100.00
75740;BME280;64357;51.344;6.550;2023-09-18T02:21:47;100048.28;;;20.93;100.00
75740;BME280;64357;51.344;6.550;2023-09-18T02:24:15;100036.91;;;20.91;100.00
75740;BME280;64357;51.344;6.550;2023-09-18T02:26:40;100031.94;;;20.96;100.00
75740;BME280;64357;51.344;6.550;2023-09-18T02:29:14;100031.66;;;20.90;100.00
75740;BME280;64357;51.344;6.550;2023-09-18T02:34:15;100015.94;;;20.87;100.00
75740;BME280;64357;51.344;6.550;2023-09-18T02:36:40;100006.47;;;20.87;100.00
75740;BME280;64357;51.344;6.550;2023-09-18T02:39:05;99994.44;;;20.89;100.00
75740;BME280;64357;51.344;6.550;2023-09-18T02:41:31;99981.38;;;20.88;100.00
75740;BME280;64357;51.344;6.550;2023-09-18T02:43:58;99987.25;;;20.84;100.00
75740;BME280;64357;51.344;6.550;2023-09-18T02:46:24;99982.88;;;20.83;100.00
75740;BME280;64357;51.344;6.550;2023-09-18T02:48:51;99983.56;;;20.79;100.00
75740;BME280;64357;51.344;6.550;2023-09-18T02:51:19;100001.59;;;20.75;100.00
75740;BME280;64357;51.344;6.550;2023-09-18T02:53:45;99999.06;;;20.77;100.00
75740;BME280;64357;51.344;6.550;2023-09-18T02:56:10;99987.72;;;20.75;100.00
75740;BME280;64357;51.344;6.550;2023-09-18T02:58:37;99971.19;;;20.73;100.00
75740;BME280;64357;51.344;6.550;2023-09-18T03:01:07;99964.16;;;20.70;100.00
75740;BME280;64357;51.344;6.550;2023-09-18T03:03:33;99966.69;;;20.69;100.00
75740;BME280;64357;51.344;6.550;2023-09-18T03:06:02;99959.72;;;20.68;100.00
75740;BME280;64357;51.344;6.550;2023-09-18T03:08:28;99951.03;;;20.67;100.00
75740;BME280;64357;51.344;6.550;2023-09-18T03:10:53;99945.84;;;20.67;100.00
75740;BME280;64357;51.344;6.550;2023-09-18T03:13:22;99944.91;;;20.65;100.00
75740;BME280;64357;51.344;6.550;2023-09-18T03:15:47;99943.19;;;20.66;100.00
75740;BME280;64357;51.344;6.550;2023-09-18T03:18:13;99925.75;;;20.63;100.00
75740;BME280;64357;51.344;6.550;2023-09-18T03:20:39;99927.41;;;20.61;100.00
75740;BME280;64357;51.344;6.550;2023-09-18T03:23:04;99937.19;;;20.67;100.00
75740;BME280;64357;51.344;6.550;2023-09-18T03:25:30;99920.66;;;20.65;100.00
75740;BME280;64357;51.344;6.550;2023-09-18T03:27:57;99924.88;;;20.63;100.00
75740;BME280;64357;51.344;6.550;2023-09-18T03:30:25;99937.72;;;20.60;100.00
75740;BME280;64357;51.344;6.550;2023-09-18T03:32:52;99936.84;;;20.59;100.00
75740;BME280;64357;51.344;6.550;2023-09-18T03:35:19;99944.91;;;20.65;100.00
75740;BME280;64357;51.344;6.550;2023-09-18T03:37:49;99935.53;;;20.49;100.00
75740;BME280;64357;51.344;6.550;2023-09-18T03:40:18;99923.75;;;20.38;100.00
75740;BME280;64357;51.344;6.550;2023-09-18T03:42:44;99910.22;;;20.26;100.00
75740;BME280;64357;51.344;6.550;2023-09-18T03:45:10;99912.25;;;20.14;100.00
75740;BME280;64357;51.344;6.550;2023-09-18T03:47:37;99913.69;;;20.07;100.00
75740;BME280;64357;51.344;6.550;2023-09-18T03:50:03;99886.50;;;19.99;100.00
75740;BME280;64357;51.344;6.550;2023-09-18T03:52:28;99899.38;;;19.97;100.00
75740;BME280;64357;51.344;6.550;2023-09-18T03:54:54;99885.19;;;19.89;100.00
75740;BME280;64357;51.344;6.550;2023-09-18T03:57:21;99869.66;;;19.89;100.00
75740;BME280;64357;51.344;6.550;2023-09-18T03:59:47;99862.09;;;19.94;100.00
75740;BME280;64357;51.344;6.550;2023-09-18T04:02:14;99845.97;;;19.82;100.00
75740;BME280;64357;51.344;6.550;2023-09-18T04:04:42;99842.00;;;19.90;100.00
75740;BME280;64357;51.344;6.550;2023-09-18T04:07:10;99830.22;;;19.96;100.00
75740;BME280;64357;51.344;6.550;2023-09-18T04:09:37;99838.94;;;19.98;100.00
75740;BME280;64357;51.344;6.550;2023-09-18T04:12:03;99908.47;;;19.88;100.00
75740;BME280;64357;51.344;6.550;2023-09-18T04:14:31;99919.03;;;19.92;100.00
75740;BME280;64357;51.344;6.550;2023-09-18T04:16:58;99920.72;;;19.92;100.00
75740;BME280;64357;51.344;6.550;2023-09-18T04:19:25;99938.06;;;19.93;100.00
75740;BME280;64357;51.344;6.550;2023-09-18T04:21:50;99942.16;;;19.88;100.00
75740;BME280;64357;51.344;6.550;2023-09-18T04:24:18;99945.94;;;19.77;100.00
75740;BME280;64357;51.344;6.550;2023-09-18T04:26:43;99938.06;;;19.75;100.00
75740;BME280;64357;51.344;6.550;2023-09-18T04:29:09;99941.25;;;19.69;100.00
75740;BME280;64357;51.344;6.550;2023-09-18T04:31:34;99938.88;;;19.74;100.00
75740;BME280;64357;51.344;6.550;2023-09-18T04:34:00;99915.84;;;19.80;100.00
75740;BME280;64357;51.344;6.550;2023-09-18T04:36:28;99902.25;;;19.66;100.00
75740;BME280;64357;51.344;6.550;2023-09-18T04:38:53;99911.78;;;19.67;100.00
75740;BME280;64357;51.344;6.550;2023-09-18T04:41:21;99912.53;;;19.65;100.00
75740;BME280;64357;51.344;6.550;2023-09-18T04:43:46;99928.88;;;19.64;100.00
75740;BME280;64357;51.344;6.550;2023-09-18T04:46:12;99918.19;;;19.58;100.00
75740;BME280;64357;51.344;6.550;2023-09-18T04:48:37;99913.13;;;19.59;100.00
75740;BME280;64357;51.344;6.550;2023-09-18T04:51:03;99908.03;;;19.61;100.00
75740;BME280;64357;51.344;6.550;2023-09-18T04:53:29;99895.06;;;19.61;100.00
75740;BME280;64357;51.344;6.550;2023-09-18T04:55:55;99894.13;;;19.59;100.00
75740;BME280;64357;51.344;6.550;2023-09-18T04:58:20;99908.84;;;19.60;100.00
75740;BME280;64357;51.344;6.550;2023-09-18T05:00:53;99912.81;;;19.53;100.00
75740;BME280;64357;51.344;6.550;2023-09-18T05:03:20;99907.63;;;19.53;100.00
75740;BME280;64357;51.344;6.550;2023-09-18T05:05:45;99907.53;;;19.52;100.00
75740;BME280;64357;51.344;6.550;2023-09-18T05:08:10;99898.81;;;19.50;100.00
75740;BME280;64357;51.344;6.550;2023-09-18T05:10:36;99906.75;;;19.53;100.00
75740;BME280;64357;51.344;6.550;2023-09-18T05:13:02;99904.94;;;19.52;100.00
75740;BME280;64357;51.344;6.550;2023-09-18T05:15:28;99903.22;;;19.52;100.00
75740;BME280;64357;51.344;6.550;2023-09-18T05:17:59;99911.38;;;19.58;100.00
75740;BME280;64357;51.344;6.550;2023-09-18T05:20:25;99921.03;;;19.62;100.00
75740;BME280;64357;51.344;6.550;2023-09-18T05:22:52;99926.09;;;19.59;100.00
75740;BME280;64357;51.344;6.550;2023-09-18T05:25:21;99930.50;;;19.62;100.00
75740;BME280;64357;51.344;6.550;2023-09-18T05:27:48;99936.81;;;19.67;100.00
75740;BME280;64357;51.344;6.550;2023-09-18T05:30:18;99935.19;;;19.69;100.00
75740;BME280;64357;51.344;6.550;2023-09-18T05:32:46;99915.50;;;19.73;100.00
75740;BME280;64357;51.344;6.550;2023-09-18T05:35:14;99916.66;;;19.79;100.00
75740;BME280;64357;51.344;6.550;2023-09-18T05:37:41;99916.59;;;19.78;100.00
75740;BME280;64357;51.344;6.550;2023-09-18T05:40:10;99932.88;;;19.75;100.00
75740;BME280;64357;51.344;6.550;2023-09-18T05:42:37;99948.28;;;19.72;100.00
75740;BME280;64357;51.344;6.550;2023-09-18T05:45:03;99952.66;;;19.73;100.00
75740;BME280;64357;51.344;6.550;2023-09-18T05:47:31;99948.13;;;19.69;100.00
75740;BME280;64357;51.344;6.550;2023-09-18T05:49:59;99964.50;;;19.68;100.00
75740;BME280;64357;51.344;6.550;2023-09-18T05:52:25;99962.72;;;19.67;100.00
75740;BME280;64357;51.344;6.550;2023-09-18T05:54:50;99965.25;;;19.65;100.00
75740;BME280;64357;51.344;6.550;2023-09-18T05:57:17;99965.03;;;19.61;100.00
75740;BME280;64357;51.344;6.550;2023-09-18T05:59:43;99966.13;;;19.66;100.00
75740;BME280;64357;51.344;6.550;2023-09-18T06:02:11;99947.06;;;19.82;100.00
75740;BME280;64357;51.344;6.550;2023-09-18T06:04:36;99942.63;;;19.98;100.00
75740;BME280;64357;51.344;6.550;2023-09-18T06:07:05;99926.06;;;19.95;100.00
75740;BME280;64357;51.344;6.550;2023-09-18T06:09:30;99912.66;;;19.86;100.00
75740;BME280;64357;51.344;6.550;2023-09-18T06:11:56;99947.09;;;20.01;100.00
75740;BME280;64357;51.344;6.550;2023-09-18T06:14:22;99953.09;;;20.00;100.00
75740;BME280;64357;51.344;6.550;2023-09-18T06:16:47;99948.72;;;19.99;100.00
75740;BME280;64357;51.344;6.550;2023-09-18T06:19:18;99932.38;;;19.82;100.00
75740;BME280;64357;51.344;6.550;2023-09-18T06:21:46;99934.69;;;19.76;100.00
75740;BME280;64357;51.344;6.550;2023-09-18T06:24:13;99941.53;;;19.76;100.00
75740;BME280;64357;51.344;6.550;2023-09-18T06:26:39;99958.06;;;19.78;100.00
75740;BME280;64357;51.344;6.550;2023-09-18T06:29:04;99969.97;;;19.74;100.00
75740;BME280;64357;51.344;6.550;2023-09-18T06:31:29;99966.66;;;19.94;100.00
75740;BME280;64357;51.344;6.550;2023-09-18T06:33:56;99973.38;;;19.91;100.00
75740;BME280;64357;51.344;6.550;2023-09-18T06:36:21;99974.97;;;20.05;100.00
75740;BME280;64357;51.344;6.550;2023-09-18T06:38:49;99982.56;;;20.02;100.00
75740;BME280;64357;51.344;6.550;2023-09-18T06:41:14;99984.03;;;20.15;100.00
75740;BME280;64357;51.344;6.550;2023-09-18T06:43:39;99977.38;;;20.02;100.00
75740;BME280;64357;51.344;6.550;2023-09-18T06:46:07;99972.97;;;20.00;100.00
75740;BME280;64357;51.344;6.550;2023-09-18T06:48:32;99978.78;;;20.13;100.00
75740;BME280;64357;51.344;6.550;2023-09-18T06:50:58;99982.03;;;20.27;100.00
75740;BME280;64357;51.344;6.550;2023-09-18T06:53:26;99982.63;;;20.21;100.00
75740;BME280;64357;51.344;6.550;2023-09-18T06:55:52;99976.41;;;20.18;100.00
75740;BME280;64357;51.344;6.550;2023-09-18T06:58:20;99988.09;;;20.28;100.00
75740;BME280;64357;51.344;6.550;2023-09-18T07:00:46;99997.22;;;20.37;100.00
75740;BME280;64357;51.344;6.550;2023-09-18T07:03:12;99989.25;;;20.34;100.00
75740;BME280;64357;51.344;6.550;2023-09-18T07:05:37;99998.69;;;20.32;100.00
75740;BME280;64357;51.344;6.550;2023-09-18T07:08:05;100001.06;;;20.45;100.00
75740;BME280;64357;51.344;6.550;2023-09-18T07:10:39;100002.69;;;20.43;100.00
75740;BME280;64357;51.344;6.550;2023-09-18T07:13:07;99995.78;;;20.44;100.00
75740;BME280;64357;51.344;6.550;2023-09-18T07:15:32;99994.63;;;20.37;100.00
75740;BME280;64357;51.344;6.550;2023-09-18T07:17:57;100008.47;;;20.38;100.00
75740;BME280;64357;51.344;6.550;2023-09-18T07:20:23;100012.22;;;20.44;100.00
75740;BME280;64357;51.344;6.550;2023-09-18T07:22:49;100007.91;;;20.63;100.00
75740;BME280;64357;51.344;6.550;2023-09-18T07:25:16;100004.91;;;20.54;100.00
75740;BME280;64357;51.344;6.550;2023-09-18T07:27:44;100006.44;;;20.68;100.00
75740;BME280;64357;51.344;6.550;2023-09-18T07:30:13;100017.50;;;20.64;100.00
75740;BME280;64357;51.344;6.550;2023-09-18T07:32:42;100013.94;;;20.62;100.00
75740;BME280;64357;51.344;6.550;2023-09-18T07:35:08;100014.03;;;20.83;100.00
75740;BME280;64357;51.344;6.550;2023-09-18T07:37:38;100000.69;;;20.75;100.00
75740;BME280;64357;51.344;6.550;2023-09-18T07:40:05;100017.19;;;20.75;100.00
75740;BME280;64357;51.344;6.550;2023-09-18T07:42:31;100021.00;;;20.64;100.00
75740;BME280;64357;51.344;6.550;2023-09-18T07:44:57;100004.00;;;20.71;100.00
75740;BME280;64357;51.344;6.550;2023-09-18T07:47:22;100020.06;;;20.82;100.00
75740;BME280;64357;51.344;6.550;2023-09-18T07:49:48;100019.06;;;20.80;100.00
75740;BME280;64357;51.344;6.550;2023-09-18T07:52:13;100022.56;;;20.80;100.00
75740;BME280;64357;51.344;6.550;2023-09-18T07:54:39;100039.56;;;20.73;100.00
75740;BME280;64357;51.344;6.550;2023-09-18T07:57:07;100032.06;;;20.80;100.00
75740;BME280;64357;51.344;6.550;2023-09-18T07:59:35;100036.09;;;20.92;100.00
75740;BME280;64357;51.344;6.550;2023-09-18T08:02:03;100046.34;;;21.09;100.00
75740;BME280;64357;51.344;6.550;2023-09-18T08:04:31;100035.41;;;20.96;100.00
75740;BME280;64357;51.344;6.550;2023-09-18T08:06:57;100024.97;;;20.95;100.00
75740;BME280;64357;51.344;6.550;2023-09-18T08:09:22;100040.31;;;21.10;100.00
75740;BME280;64357;51.344;6.550;2023-09-18T08:11:48;100054.47;;;20.97;100.00
75740;BME280;64357;51.344;6.550;2023-09-18T08:14:15;100037.31;;;21.20;100.00
75740;BME280;64357;51.344;6.550;2023-09-18T08:16:40;100043.84;;;21.29;100.00
75740;BME280;64357;51.344;6.550;2023-09-18T08:19:06;100039.75;;;21.35;100.00
75740;BME280;64357;51.344;6.550;2023-09-18T08:21:32;100049.22;;;21.34;100.00
75740;BME280;64357;51.344;6.550;2023-09-18T08:24:00;100056.13;;;21.34;100.00
75740;BME280;64357;51.344;6.550;2023-09-18T08:26:26;100051.06;;;21.56;100.00
75740;BME280;64357;51.344;6.550;2023-09-18T08:28:52;100059.06;;;21.61;100.00
75740;BME280;64357;51.344;6.550;2023-09-18T08:31:18;100066.84;;;21.61;100.00
75740;BME280;64357;51.344;6.550;2023-09-18T08:33:43;100063.47;;;21.42;100.00
75740;BME280;64357;51.344;6.550;2023-09-18T08:36:10;100069.81;;;21.49;100.00
75740;BME280;64357;51.344;6.550;2023-09-18T08:38:35;100064.00;;;21.54;100.00
75740;BME280;64357;51.344;6.550;2023-09-18T08:41:00;100068.09;;;21.49;100.00
75740;BME280;64357;51.344;6.550;2023-09-18T08:43:29;100068.50;;;21.59;100.00
75740;BME280;64357;51.344;6.550;2023-09-18T08:45:57;100068.75;;;21.65;100.00
75740;BME280;64357;51.344;6.550;2023-09-18T08:48:29;100066.06;;;21.42;100.00
75740;BME280;64357;51.344;6.550;2023-09-18T08:51:02;100063.38;;;21.60;100.00
75740;BME280;64357;51.344;6.550;2023-09-18T08:53:31;100076.72;;;21.69;100.00
75740;BME280;64357;51.344;6.550;2023-09-18T08:55:59;100070.22;;;21.79;100.00
75740;BME280;64357;51.344;6.550;2023-09-18T08:58:32;100078.34;;;21.66;100.00
75740;BME280;64357;51.344;6.550;2023-09-18T09:01:03;100085.59;;;21.94;100.00
75740;BME280;64357;51.344;6.550;2023-09-18T09:03:36;100071.00;;;21.76;100.00
75740;BME280;64357;51.344;6.550;2023-09-18T09:06:05;100081.75;;;21.65;100.00
75740;BME280;64357;51.344;6.550;2023-09-18T09:08:31;100083.03;;;21.74;100.00
75740;BME280;64357;51.344;6.550;2023-09-18T09:10:59;100081.47;;;21.99;100.00
75740;BME280;64357;51.344;6.550;2023-09-18T09:13:25;100065.09;;;21.80;100.00
75740;BME280;64357;51.344;6.550;2023-09-18T09:15:54;100067.44;;;22.16;100.00
75740;BME280;64357;51.344;6.550;2023-09-18T09:18:22;100073.50;;;22.15;100.00
75740;BME280;64357;51.344;6.550;2023-09-18T09:20:58;100055.06;;;21.90;100.00
75740;BME280;64357;51.344;6.550;2023-09-18T09:23:29;100060.34;;;21.91;100.00
75740;BME280;64357;51.344;6.550;2023-09-18T09:26:12;100052.66;;;21.94;100.00
75740;BME280;64357;51.344;6.550;2023-09-18T09:28:37;100052.34;;;22.07;100.00
75740;BME280;64357;51.344;6.550;2023-09-18T09:31:03;100055.53;;;22.00;100.00
75740;BME280;64357;51.344;6.550;2023-09-18T09:33:29;100059.97;;;22.24;100.00
75740;BME280;64357;51.344;6.550;2023-09-18T09:35:56;100058.16;;;22.44;100.00
75740;BME280;64357;51.344;6.550;2023-09-18T09:38:29;100058.34;;;22.71;99.30
75740;BME280;64357;51.344;6.550;2023-09-18T09:40:57;100067.69;;;22.43;99.80
75740;BME280;64357;51.344;6.550;2023-09-18T09:43:25;100091.88;;;22.63;99.94
75740;BME280;64357;51.344;6.550;2023-09-18T09:45:57;100081.72;;;22.69;97.97
75740;BME280;64357;51.344;6.550;2023-09-18T09:48:23;100093.13;;;22.73;99.06
75740;BME280;64357;51.344;6.550;2023-09-18T09:50:50;100094.69;;;22.90;97.09
75740;BME280;64357;51.344;6.550;2023-09-18T09:56:09;100091.06;;;23.33;95.04
75740;BME280;64357;51.344;6.550;2023-09-18T09:58:34;100094.84;;;23.41;92.99
75740;BME280;64357;51.344;6.550;2023-09-18T10:01:03;100091.72;;;23.27;93.98
75740;BME280;64357;51.344;6.550;2023-09-18T10:03:29;100070.34;;;24.11;89.38
75740;BME280;64357;51.344;6.550;2023-09-18T10:05:55;100067.06;;;25.02;83.49
75740;BME280;64357;51.344;6.550;2023-09-18T10:08:23;100077.78;;;26.06;78.12
75740;BME280;64357;51.344;6.550;2023-09-18T10:11:01;100063.00;;;26.82;74.55
75740;BME280;64357;51.344;6.550;2023-09-18T10:16:12;100080.09;;;27.49;71.11
75740;BME280;64357;51.344;6.550;2023-09-18T10:19:07;100084.72;;;28.11;67.83
75740;BME280;64357;51.344;6.550;2023-09-18T10:21:57;100083.03;;;27.66;68.36
75740;BME280;64357;51.344;6.550;2023-09-18T10:24:31;100074.72;;;27.88;67.90
75740;BME280;64357;51.344;6.550;2023-09-18T10:26:59;100075.38;;;27.75;67.47
75740;BME280;64357;51.344;6.550;2023-09-18T10:29:26;100060.50;;;27.76;66.21
75740;BME280;64357;51.344;6.550;2023-09-18T10:31:53;100051.84;;;28.33;63.63
75740;BME280;64357;51.344;6.550;2023-09-18T10:34:19;100061.66;;;27.92;65.78
75740;BME280;64357;51.344;6.550;2023-09-18T10:36:50;100068.25;;;28.79;62.56
75740;BME280;64357;51.344;6.550;2023-09-18T10:39:16;100068.31;;;28.82;62.64
75740;BME280;64357;51.344;6.550;2023-09-18T10:41:55;100073.16;;;28.00;63.91
75740;BME280;64357;51.344;6.550;2023-09-18T10:44:22;100067.06;;;28.01;63.46
75740;BME280;64357;51.344;6.550;2023-09-18T10:46:51;100065.28;;;28.53;62.46
75740;BME280;64357;51.344;6.550;2023-09-18T10:49:18;100076.00;;;29.36;58.43
75740;BME280;64357;51.344;6.550;2023-09-18T10:51:44;100074.38;;;29.47;57.86
75740;BME280;64357;51.344;6.550;2023-09-18T10:54:14;100070.66;;;29.30;57.98
75740;BME280;64357;51.344;6.550;2023-09-18T10:56:42;100062.25;;;28.89;58.40
75740;BME280;64357;51.344;6.550;2023-09-18T10:59:07;100066.75;;;28.94;57.48
75740;BME280;64357;51.344;6.550;2023-09-18T11:01:34;100072.63;;;28.78;58.75
75740;BME280;64357;51.344;6.550;2023-09-18T11:04:05;100076.44;;;29.00;58.35
75740;BME280;64357;51.344;6.550;2023-09-18T11:09:22;100074.25;;;29.37;56.30
75740;BME280;64357;51.344;6.550;2023-09-18T11:17:39;100089.88;;;29.23;57.80
75740;BME280;64357;51.344;6.550;2023-09-18T11:22:40;100091.91;;;28.21;62.32
75740;BME280;64357;51.344;6.550;2023-09-18T11:28:03;100102.19;;;26.40;69.24
75740;BME280;64357;51.344;6.550;2023-09-18T11:30:29;100090.41;;;26.58;69.53
75740;BME280;64357;51.344;6.550;2023-09-18T11:32:57;100081.38;;;27.24;67.40
75740;BME280;64357;51.344;6.550;2023-09-18T11:35:23;100087.00;;;27.89;63.61
75740;BME280;64357;51.344;6.550;2023-09-18T11:38:03;100078.81;;;28.82;62.73
75740;BME280;64357;51.344;6.550;2023-09-18T11:40:33;100065.38;;;28.06;60.67
75740;BME280;64357;51.344;6.550;2023-09-18T11:46:03;100068.16;;;28.71;58.37
75740;BME280;64357;51.344;6.550;2023-09-18T11:48:29;100070.03;;;28.22;59.05
75740;BME280;64357;51.344;6.550;2023-09-18T11:51:00;100077.47;;;27.96;58.96
75740;BME280;64357;51.344;6.550;2023-09-18T11:53:36;100070.16;;;26.91;61.98
75740;BME280;64357;51.344;6.550;2023-09-18T11:56:10;100069.97;;;26.81;62.35
75740;BME280;64357;51.344;6.550;2023-09-18T11:58:50;100076.34;;;27.35;61.18
75740;BME280;64357;51.344;6.550;2023-09-18T12:01:17;100078.56;;;27.15;60.16
75740;BME280;64357;51.344;6.550;2023-09-18T12:03:43;100055.28;;;27.32;59.38
75740;BME280;64357;51.344;6.550;2023-09-18T12:06:09;100062.69;;;27.53;59.51
75740;BME280;64357;51.344;6.550;2023-09-18T12:08:41;100051.56;;;28.16;56.68
75740;BME280;64357;51.344;6.550;2023-09-18T12:11:08;100048.47;;;26.98;60.46
75740;BME280;64357;51.344;6.550;2023-09-18T12:13:34;100047.06;;;27.14;61.13
75740;BME280;64357;51.344;6.550;2023-09-18T12:16:03;100040.94;;;27.15;61.15
75740;BME280;64357;51.344;6.550;2023-09-18T12:18:32;100036.47;;;27.54;58.53
75740;BME280;64357;51.344;6.550;2023-09-18T12:21:01;100045.03;;;27.91;57.50
75740;BME280;64357;51.344;6.550;2023-09-18T12:23:29;100026.53;;;28.38;55.70
75740;BME280;64357;51.344;6.550;2023-09-18T12:26:04;100055.16;;;28.23;55.33
75740;BME280;64357;51.344;6.550;2023-09-18T12:28:33;100026.47;;;28.35;55.48
75740;BME280;64357;51.344;6.550;2023-09-18T12:30:58;100030.91;;;28.39;54.15
75740;BME280;64357;51.344;6.550;2023-09-18T12:33:24;100017.34;;;28.13;54.12
75740;BME280;64357;51.344;6.550;2023-09-18T12:35:52;100039.84;;;28.50;53.48
75740;BME280;64357;51.344;6.550;2023-09-18T12:38:19;100018.75;;;28.44;53.08
75740;BME280;64357;51.344;6.550;2023-09-18T12:40:55;100021.63;;;28.06;53.56
75740;BME280;64357;51.344;6.550;2023-09-18T12:43:22;100041.34;;;28.34;54.29
75740;BME280;64357;51.344;6.550;2023-09-18T12:45:49;100024.06;;;27.94;54.79
75740;BME280;64357;51.344;6.550;2023-09-18T12:48:15;100037.16;;;27.91;54.58
75740;BME280;64357;51.344;6.550;2023-09-18T12:50:41;100026.06;;;27.60;55.23
75740;BME280;64357;51.344;6.550;2023-09-18T12:53:11;99995.63;;;27.69;53.88
75740;BME280;64357;51.344;6.550;2023-09-18T12:55:37;100009.38;;;27.55;54.31
75740;BME280;64357;51.344;6.550;2023-09-18T12:58:03;100014.25;;;27.84;53.91
75740;BME280;64357;51.344;6.550;2023-09-18T13:00:33;100042.06;;;28.26;54.75
75740;BME280;64357;51.344;6.550;2023-09-18T13:02:58;100014.31;;;27.85;53.90
75740;BME280;64357;51.344;6.550;2023-09-18T13:05:24;100030.19;;;27.95;55.47
75740;BME280;64357;51.344;6.550;2023-09-18T13:10:27;100022.47;;;27.54;56.80
75740;BME280;64357;51.344;6.550;2023-09-18T13:12:55;100029.16;;;27.85;56.49
75740;BME280;64357;51.344;6.550;2023-09-18T13:15:39;100007.16;;;27.30;56.26
75740;BME280;64357;51.344;6.550;2023-09-18T13:18:14;100009.16;;;27.43;57.55